sensor_id;sensor_type;location;lat;lon;timestamp;P1;durP1;ratioP1;P2;durP2;ratioP2
73337;SDS011;61575;49.908;35.556;2023-06-22T00:01:44;5.00;;;2.28;;
73337;SDS011;61575;49.908;35.556;2023-06-22T00:04:46;3.70;;;1.83;;
73337;SDS011;61575;49.908;35.556;2023-06-22T00:07:48;4.88;;;2.00;;
73337;SDS011;61575;49.908;35.556;2023-06-22T00:10:49;5.07;;;2.00;;
73337;SDS011;61575;49.908;35.556;2023-06-22T00:13:51;4.82;;;2.03;;
73337;SDS011;61575;49.908;35.556;2023-06-22T00:16:53;4.15;;;2.03;;
73337;SDS011;61575;49.908;35.556;2023-06-22T00:19:58;4.13;;;1.77;;
73337;SDS011;61575;49.908;35.556;2023-06-22T00:23:02;5.15;;;2.35;;
73337;SDS011;61575;49.908;35.556;2023-06-22T00:26:15;4.32;;;2.20;;
73337;SDS011;61575;49.908;35.556;2023-06-22T00:29:17;3.50;;;1.70;;
73337;SDS011;61575;49.908;35.556;2023-06-22T00:32:20;4.68;;;2.10;;
73337;SDS011;61575;49.908;35.556;2023-06-22T00:35:22;4.33;;;2.23;;
73337;SDS011;61575;49.908;35.556;2023-06-22T00:38:24;4.22;;;2.03;;
73337;SDS011;61575;49.908;35.556;2023-06-22T00:41:25;3.73;;;1.80;;
73337;SDS011;61575;49.908;35.556;2023-06-22T00:44:30;4.57;;;1.95;;
73337;SDS011;61575;49.908;35.556;2023-06-22T00:47:31;4.30;;;1.97;;
73337;SDS011;61575;49.908;35.556;2023-06-22T00:50:35;4.90;;;2.13;;
73337;SDS011;61575;49.908;35.556;2023-06-22T00:53:37;3.67;;;1.90;;
73337;SDS011;61575;49.908;35.556;2023-06-22T00:56:40;4.18;;;1.85;;
73337;SDS011;61575;49.908;35.556;2023-06-22T00:59:44;4.97;;;2.20;;
73337;SDS011;61575;49.908;35.556;2023-06-22T01:02:47;4.18;;;2.00;;
73337;SDS011;61575;49.908;35.556;2023-06-22T01:05:53;5.15;;;2.25;;
73337;SDS011;61575;49.908;35.556;2023-06-22T01:09:12;5.15;;;1.80;;
73337;SDS011;61575;49.908;35.556;2023-06-22T01:12:17;4.47;;;2.25;;
73337;SDS011;61575;49.908;35.556;2023-06-22T01:15:44;4.85;;;2.33;;
73337;SDS011;61575;49.908;35.556;2023-06-22T01:18:52;5.15;;;2.13;;
73337;SDS011;61575;49.908;35.556;2023-06-22T01:21:56;4.38;;;2.05;;
73337;SDS011;61575;49.908;35.556;2023-06-22T01:31:40;4.70;;;1.90;;
73337;SDS011;61575;49.908;35.556;2023-06-22T01:34:46;5.30;;;2.05;;
73337;SDS011;61575;49.908;35.556;2023-06-22T01:37:49;3.92;;;2.13;;
73337;SDS011;61575;49.908;35.556;2023-06-22T01:40:52;5.13;;;2.50;;
73337;SDS011;61575;49.908;35.556;2023-06-22T01:43:56;6.07;;;2.33;;
73337;SDS011;61575;49.908;35.556;2023-06-22T01:46:58;4.10;;;2.20;;
73337;SDS011;61575;49.908;35.556;2023-06-22T01:50:01;3.92;;;2.17;;
73337;SDS011;61575;49.908;35.556;2023-06-22T01:53:03;4.82;;;2.20;;
73337;SDS011;61575;49.908;35.556;2023-06-22T01:56:06;4.97;;;2.20;;
73337;SDS011;61575;49.908;35.556;2023-06-22T02:02:37;4.00;;;1.83;;
73337;SDS011;61575;49.908;35.556;2023-06-22T02:05:49;4.32;;;2.13;;
73337;SDS011;61575;49.908;35.556;2023-06-22T02:08:57;4.78;;;2.35;;
73337;SDS011;61575;49.908;35.556;2023-06-22T02:12:02;6.20;;;2.40;;
73337;SDS011;61575;49.908;35.556;2023-06-22T02:15:08;5.38;;;2.50;;
73337;SDS011;61575;49.908;35.556;2023-06-22T02:18:12;4.32;;;2.20;;
73337;SDS011;61575;49.908;35.556;2023-06-22T02:24:16;4.78;;;2.30;;
73337;SDS011;61575;49.908;35.556;2023-06-22T02:27:18;4.33;;;2.03;;
73337;SDS011;61575;49.908;35.556;2023-06-22T02:30:22;4.70;;;2.17;;
73337;SDS011;61575;49.908;35.556;2023-06-22T02:33:24;4.90;;;2.10;;
73337;SDS011;61575;49.908;35.556;2023-06-22T02:36:26;4.53;;;2.13;;
73337;SDS011;61575;49.908;35.556;2023-06-22T02:39:34;4.53;;;1.95;;
73337;SDS011;61575;49.908;35.556;2023-06-22T02:42:37;5.10;;;2.20;;
73337;SDS011;61575;49.908;35.556;2023-06-22T02:45:39;4.53;;;2.17;;
73337;SDS011;61575;49.908;35.556;2023-06-22T02:48:42;4.68;;;2.00;;
73337;SDS011;61575;49.908;35.556;2023-06-22T02:51:47;4.13;;;1.90;;
73337;SDS011;61575;49.908;35.556;2023-06-22T02:54:53;4.57;;;1.90;;
73337;SDS011;61575;49.908;35.556;2023-06-22T02:57:55;2.78;;;1.60;;
73337;SDS011;61575;49.908;35.556;2023-06-22T03:00:59;4.53;;;2.00;;
73337;SDS011;61575;49.908;35.556;2023-06-22T03:04:07;4.30;;;2.00;;
73337;SDS011;61575;49.908;35.556;2023-06-22T03:07:10;3.83;;;1.90;;
73337;SDS011;61575;49.908;35.556;2023-06-22T03:10:12;3.37;;;1.67;;
73337;SDS011;61575;49.908;35.556;2023-06-22T03:13:15;4.30;;;1.70;;
73337;SDS011;61575;49.908;35.556;2023-06-22T03:16:18;3.20;;;1.60;;
73337;SDS011;61575;49.908;35.556;2023-06-22T03:19:22;3.78;;;1.67;;
73337;SDS011;61575;49.908;35.556;2023-06-22T03:22:24;3.88;;;1.88;;
73337;SDS011;61575;49.908;35.556;2023-06-22T03:25:26;3.13;;;1.63;;
73337;SDS011;61575;49.908;35.556;2023-06-22T03:31:31;4.33;;;2.13;;
73337;SDS011;61575;49.908;35.556;2023-06-22T03:34:33;3.03;;;1.60;;
73337;SDS011;61575;49.908;35.556;2023-06-22T03:37:37;4.70;;;1.90;;
73337;SDS011;61575;49.908;35.556;2023-06-22T03:40:39;5.60;;;2.00;;
73337;SDS011;61575;49.908;35.556;2023-06-22T03:43:41;4.25;;;2.00;;
73337;SDS011;61575;49.908;35.556;2023-06-22T03:46:44;3.55;;;1.80;;
73337;SDS011;61575;49.908;35.556;2023-06-22T03:49:46;5.47;;;1.90;;
73337;SDS011;61575;49.908;35.556;2023-06-22T03:52:48;3.30;;;1.52;;
73337;SDS011;61575;49.908;35.556;2023-06-22T03:55:50;5.05;;;1.70;;
73337;SDS011;61575;49.908;35.556;2023-06-22T03:58:53;3.72;;;1.67;;
73337;SDS011;61575;49.908;35.556;2023-06-22T04:01:55;4.05;;;1.58;;
73337;SDS011;61575;49.908;35.556;2023-06-22T04:04:57;4.30;;;1.88;;
73337;SDS011;61575;49.908;35.556;2023-06-22T04:08:02;4.22;;;1.60;;
73337;SDS011;61575;49.908;35.556;2023-06-22T04:11:03;3.72;;;1.90;;
73337;SDS011;61575;49.908;35.556;2023-06-22T04:14:06;3.83;;;1.73;;
73337;SDS011;61575;49.908;35.556;2023-06-22T04:17:08;3.67;;;1.65;;
73337;SDS011;61575;49.908;35.556;2023-06-22T04:20:10;3.83;;;1.80;;
73337;SDS011;61575;49.908;35.556;2023-06-22T04:23:12;3.55;;;1.65;;
73337;SDS011;61575;49.908;35.556;2023-06-22T04:26:14;4.90;;;1.95;;
73337;SDS011;61575;49.908;35.556;2023-06-22T04:29:16;3.83;;;1.77;;
73337;SDS011;61575;49.908;35.556;2023-06-22T04:32:18;3.15;;;1.60;;
73337;SDS011;61575;49.908;35.556;2023-06-22T04:35:20;4.22;;;1.67;;
73337;SDS011;61575;49.908;35.556;2023-06-22T04:38:24;3.47;;;1.77;;
73337;SDS011;61575;49.908;35.556;2023-06-22T04:41:26;3.53;;;1.65;;
73337;SDS011;61575;49.908;35.556;2023-06-22T04:44:28;4.20;;;2.00;;
73337;SDS011;61575;49.908;35.556;2023-06-22T04:47:30;4.47;;;1.60;;
73337;SDS011;61575;49.908;35.556;2023-06-22T04:50:31;4.32;;;1.92;;
73337;SDS011;61575;49.908;35.556;2023-06-22T04:53:33;4.80;;;1.90;;
73337;SDS011;61575;49.908;35.556;2023-06-22T04:56:35;4.03;;;1.83;;
73337;SDS011;61575;49.908;35.556;2023-06-22T04:59:38;4.32;;;1.63;;
73337;SDS011;61575;49.908;35.556;2023-06-22T05:02:44;3.75;;;1.80;;
73337;SDS011;61575;49.908;35.556;2023-06-22T05:05:47;3.75;;;1.77;;
73337;SDS011;61575;49.908;35.556;2023-06-22T05:08:49;3.60;;;1.70;;
73337;SDS011;61575;49.908;35.556;2023-06-22T05:14:53;4.05;;;1.60;;
73337;SDS011;61575;49.908;35.556;2023-06-22T05:17:55;4.50;;;1.83;;
73337;SDS011;61575;49.908;35.556;2023-06-22T05:20:57;4.25;;;1.90;;
73337;SDS011;61575;49.908;35.556;2023-06-22T05:24:01;4.38;;;1.75;;
73337;SDS011;61575;49.908;35.556;2023-06-22T05:27:04;6.35;;;2.00;;
73337;SDS011;61575;49.908;35.556;2023-06-22T05:36:11;3.80;;;1.80;;
73337;SDS011;61575;49.908;35.556;2023-06-22T05:39:14;6.05;;;1.90;;
73337;SDS011;61575;49.908;35.556;2023-06-22T05:42:16;4.35;;;1.67;;
73337;SDS011;61575;49.908;35.556;2023-06-22T05:45:18;4.05;;;1.90;;
73337;SDS011;61575;49.908;35.556;2023-06-22T05:48:20;2.92;;;1.40;;
73337;SDS011;61575;49.908;35.556;2023-06-22T05:51:22;5.13;;;1.90;;
73337;SDS011;61575;49.908;35.556;2023-06-22T05:54:24;3.58;;;1.70;;
73337;SDS011;61575;49.908;35.556;2023-06-22T05:57:26;4.45;;;1.75;;
73337;SDS011;61575;49.908;35.556;2023-06-22T06:00:27;4.40;;;2.08;;
73337;SDS011;61575;49.908;35.556;2023-06-22T06:03:33;4.97;;;1.90;;
73337;SDS011;61575;49.908;35.556;2023-06-22T06:06:35;4.45;;;1.80;;
73337;SDS011;61575;49.908;35.556;2023-06-22T06:09:38;4.47;;;1.80;;
73337;SDS011;61575;49.908;35.556;2023-06-22T06:12:40;5.20;;;1.70;;
73337;SDS011;61575;49.908;35.556;2023-06-22T06:15:42;3.47;;;1.50;;
73337;SDS011;61575;49.908;35.556;2023-06-22T06:18:44;4.53;;;1.65;;
73337;SDS011;61575;49.908;35.556;2023-06-22T06:21:46;3.42;;;1.30;;
73337;SDS011;61575;49.908;35.556;2023-06-22T06:24:48;2.72;;;1.40;;
73337;SDS011;61575;49.908;35.556;2023-06-22T06:27:51;3.08;;;1.30;;
73337;SDS011;61575;49.908;35.556;2023-06-22T06:30:56;2.85;;;1.30;;
73337;SDS011;61575;49.908;35.556;2023-06-22T06:33:58;3.20;;;1.45;;
73337;SDS011;61575;49.908;35.556;2023-06-22T06:36:59;2.95;;;1.38;;
73337;SDS011;61575;49.908;35.556;2023-06-22T06:40:02;3.10;;;1.33;;
73337;SDS011;61575;49.908;35.556;2023-06-22T06:43:06;3.15;;;1.30;;
73337;SDS011;61575;49.908;35.556;2023-06-22T06:46:08;3.35;;;1.40;;
73337;SDS011;61575;49.908;35.556;2023-06-22T06:49:10;2.90;;;1.42;;
73337;SDS011;61575;49.908;35.556;2023-06-22T06:52:13;3.55;;;1.55;;
73337;SDS011;61575;49.908;35.556;2023-06-22T06:58:16;2.45;;;1.30;;
73337;SDS011;61575;49.908;35.556;2023-06-22T07:04:23;2.60;;;1.42;;
73337;SDS011;61575;49.908;35.556;2023-06-22T07:07:25;3.42;;;1.70;;
73337;SDS011;61575;49.908;35.556;2023-06-22T07:13:29;3.28;;;1.60;;
73337;SDS011;61575;49.908;35.556;2023-06-22T07:16:31;3.22;;;1.65;;
73337;SDS011;61575;49.908;35.556;2023-06-22T07:19:34;3.47;;;1.40;;
73337;SDS011;61575;49.908;35.556;2023-06-22T07:22:36;3.42;;;1.73;;
73337;SDS011;61575;49.908;35.556;2023-06-22T07:25:38;3.10;;;1.40;;
73337;SDS011;61575;49.908;35.556;2023-06-22T07:31:42;3.97;;;1.50;;
73337;SDS011;61575;49.908;35.556;2023-06-22T07:34:44;2.47;;;1.27;;
73337;SDS011;61575;49.908;35.556;2023-06-22T07:40:49;3.20;;;1.70;;
73337;SDS011;61575;49.908;35.556;2023-06-22T07:43:52;3.10;;;1.55;;
73337;SDS011;61575;49.908;35.556;2023-06-22T07:46:54;3.40;;;1.55;;
73337;SDS011;61575;49.908;35.556;2023-06-22T07:52:59;3.80;;;1.60;;
73337;SDS011;61575;49.908;35.556;2023-06-22T07:56:01;3.30;;;1.60;;
73337;SDS011;61575;49.908;35.556;2023-06-22T07:59:08;3.03;;;1.40;;
73337;SDS011;61575;49.908;35.556;2023-06-22T08:02:10;3.75;;;1.70;;
73337;SDS011;61575;49.908;35.556;2023-06-22T08:05:13;3.17;;;1.50;;
73337;SDS011;61575;49.908;35.556;2023-06-22T08:08:23;2.90;;;1.50;;
73337;SDS011;61575;49.908;35.556;2023-06-22T08:11:25;3.75;;;1.77;;
73337;SDS011;61575;49.908;35.556;2023-06-22T08:14:27;3.15;;;1.70;;
73337;SDS011;61575;49.908;35.556;2023-06-22T08:17:31;3.70;;;1.60;;
73337;SDS011;61575;49.908;35.556;2023-06-22T08:20:33;3.63;;;1.60;;
73337;SDS011;61575;49.908;35.556;2023-06-22T08:23:35;3.90;;;1.92;;
73337;SDS011;61575;49.908;35.556;2023-06-22T08:26:37;3.80;;;1.60;;
73337;SDS011;61575;49.908;35.556;2023-06-22T08:29:39;3.25;;;1.60;;
73337;SDS011;61575;49.908;35.556;2023-06-22T08:35:42;3.90;;;1.80;;
73337;SDS011;61575;49.908;35.556;2023-06-22T08:38:45;3.53;;;1.85;;
73337;SDS011;61575;49.908;35.556;2023-06-22T08:41:51;3.72;;;1.90;;
73337;SDS011;61575;49.908;35.556;2023-06-22T08:44:53;3.47;;;1.90;;
73337;SDS011;61575;49.908;35.556;2023-06-22T08:47:57;4.40;;;1.92;;
73337;SDS011;61575;49.908;35.556;2023-06-22T08:50:59;4.85;;;2.08;;
73337;SDS011;61575;49.908;35.556;2023-06-22T08:54:01;3.80;;;2.00;;
73337;SDS011;61575;49.908;35.556;2023-06-22T08:57:03;3.38;;;1.90;;
73337;SDS011;61575;49.908;35.556;2023-06-22T09:00:08;3.60;;;1.80;;
73337;SDS011;61575;49.908;35.556;2023-06-22T09:03:18;4.38;;;2.03;;
73337;SDS011;61575;49.908;35.556;2023-06-22T09:06:22;3.50;;;1.65;;
73337;SDS011;61575;49.908;35.556;2023-06-22T09:09:24;3.10;;;1.85;;
73337;SDS011;61575;49.908;35.556;2023-06-22T09:12:26;4.07;;;2.00;;
73337;SDS011;61575;49.908;35.556;2023-06-22T09:15:28;3.45;;;1.83;;
73337;SDS011;61575;49.908;35.556;2023-06-22T09:18:31;3.38;;;1.70;;
73337;SDS011;61575;49.908;35.556;2023-06-22T09:21:33;3.20;;;1.90;;
73337;SDS011;61575;49.908;35.556;2023-06-22T09:24:35;4.10;;;1.70;;
73337;SDS011;61575;49.908;35.556;2023-06-22T09:27:37;3.50;;;1.77;;
73337;SDS011;61575;49.908;35.556;2023-06-22T09:30:39;3.45;;;1.77;;
73337;SDS011;61575;49.908;35.556;2023-06-22T09:33:41;4.18;;;1.90;;
73337;SDS011;61575;49.908;35.556;2023-06-22T09:36:43;3.90;;;1.90;;
73337;SDS011;61575;49.908;35.556;2023-06-22T09:39:46;3.63;;;1.80;;
73337;SDS011;61575;49.908;35.556;2023-06-22T09:42:47;2.92;;;1.63;;
73337;SDS011;61575;49.908;35.556;2023-06-22T09:45:49;3.40;;;1.80;;
73337;SDS011;61575;49.908;35.556;2023-06-22T09:48:52;3.00;;;1.30;;
73337;SDS011;61575;49.908;35.556;2023-06-22T09:51:54;3.38;;;1.70;;
73337;SDS011;61575;49.908;35.556;2023-06-22T09:54:56;3.25;;;1.67;;
73337;SDS011;61575;49.908;35.556;2023-06-22T09:57:58;3.97;;;1.85;;
73337;SDS011;61575;49.908;35.556;2023-06-22T10:01:00;3.72;;;1.88;;
73337;SDS011;61575;49.908;35.556;2023-06-22T10:04:02;3.58;;;1.90;;
73337;SDS011;61575;49.908;35.556;2023-06-22T10:07:04;4.97;;;1.90;;
73337;SDS011;61575;49.908;35.556;2023-06-22T10:10:07;4.45;;;1.95;;
73337;SDS011;61575;49.908;35.556;2023-06-22T10:13:09;4.05;;;2.00;;
73337;SDS011;61575;49.908;35.556;2023-06-22T10:16:12;3.67;;;2.00;;
73337;SDS011;61575;49.908;35.556;2023-06-22T10:19:14;3.63;;;1.90;;
73337;SDS011;61575;49.908;35.556;2023-06-22T10:22:16;3.45;;;1.92;;
73337;SDS011;61575;49.908;35.556;2023-06-22T10:25:18;3.53;;;2.03;;
73337;SDS011;61575;49.908;35.556;2023-06-22T10:28:20;3.88;;;2.03;;
73337;SDS011;61575;49.908;35.556;2023-06-22T10:31:22;3.63;;;1.85;;
73337;SDS011;61575;49.908;35.556;2023-06-22T10:34:24;3.40;;;1.80;;
73337;SDS011;61575;49.908;35.556;2023-06-22T10:37:26;4.47;;;2.25;;
73337;SDS011;61575;49.908;35.556;2023-06-22T10:40:28;3.90;;;1.95;;
73337;SDS011;61575;49.908;35.556;2023-06-22T10:43:30;3.55;;;1.90;;
73337;SDS011;61575;49.908;35.556;2023-06-22T10:46:32;4.32;;;2.33;;
73337;SDS011;61575;49.908;35.556;2023-06-22T10:49:34;3.60;;;2.08;;
73337;SDS011;61575;49.908;35.556;2023-06-22T10:52:36;4.45;;;2.25;;
73337;SDS011;61575;49.908;35.556;2023-06-22T10:55:37;3.10;;;1.83;;
73337;SDS011;61575;49.908;35.556;2023-06-22T10:58:56;4.18;;;2.10;;
73337;SDS011;61575;49.908;35.556;2023-06-22T11:01:58;3.33;;;1.80;;
73337;SDS011;61575;49.908;35.556;2023-06-22T11:05:00;6.85;;;2.92;;
73337;SDS011;61575;49.908;35.556;2023-06-22T11:08:02;3.63;;;2.10;;
73337;SDS011;61575;49.908;35.556;2023-06-22T11:11:04;4.10;;;2.30;;
73337;SDS011;61575;49.908;35.556;2023-06-22T11:14:06;3.97;;;2.15;;
73337;SDS011;61575;49.908;35.556;2023-06-22T11:17:08;3.78;;;1.90;;
73337;SDS011;61575;49.908;35.556;2023-06-22T11:20:11;3.78;;;1.92;;
73337;SDS011;61575;49.908;35.556;2023-06-22T11:23:13;3.60;;;1.98;;
73337;SDS011;61575;49.908;35.556;2023-06-22T11:26:15;4.47;;;2.25;;
73337;SDS011;61575;49.908;35.556;2023-06-22T11:29:17;4.32;;;2.33;;
73337;SDS011;61575;49.908;35.556;2023-06-22T11:32:36;5.22;;;2.10;;
73337;SDS011;61575;49.908;35.556;2023-06-22T11:35:39;4.53;;;2.35;;
73337;SDS011;61575;49.908;35.556;2023-06-22T11:38:41;4.00;;;2.03;;
73337;SDS011;61575;49.908;35.556;2023-06-22T11:41:44;3.85;;;2.08;;
73337;SDS011;61575;49.908;35.556;2023-06-22T11:44:46;4.15;;;2.20;;
73337;SDS011;61575;49.908;35.556;2023-06-22T11:47:48;3.85;;;2.10;;
73337;SDS011;61575;49.908;35.556;2023-06-22T11:50:50;3.75;;;2.20;;
73337;SDS011;61575;49.908;35.556;2023-06-22T11:53:53;4.00;;;2.40;;
73337;SDS011;61575;49.908;35.556;2023-06-22T11:56:55;5.13;;;2.50;;
73337;SDS011;61575;49.908;35.556;2023-06-22T11:59:57;4.35;;;2.38;;
73337;SDS011;61575;49.908;35.556;2023-06-22T12:02:59;5.45;;;2.40;;
73337;SDS011;61575;49.908;35.556;2023-06-22T12:06:02;5.13;;;2.40;;
73337;SDS011;61575;49.908;35.556;2023-06-22T12:09:04;3.85;;;2.25;;
73337;SDS011;61575;49.908;35.556;2023-06-22T12:12:06;4.97;;;2.30;;
73337;SDS011;61575;49.908;35.556;2023-06-22T12:15:09;4.55;;;2.50;;
73337;SDS011;61575;49.908;35.556;2023-06-22T12:18:11;4.10;;;1.92;;
73337;SDS011;61575;49.908;35.556;2023-06-22T12:21:15;5.90;;;3.00;;
73337;SDS011;61575;49.908;35.556;2023-06-22T12:24:17;4.80;;;2.63;;
73337;SDS011;61575;49.908;35.556;2023-06-22T12:27:19;4.72;;;2.20;;
73337;SDS011;61575;49.908;35.556;2023-06-22T12:30:21;4.10;;;2.58;;
73337;SDS011;61575;49.908;35.556;2023-06-22T12:33:23;4.97;;;2.75;;
73337;SDS011;61575;49.908;35.556;2023-06-22T12:36:25;4.80;;;2.40;;
73337;SDS011;61575;49.908;35.556;2023-06-22T12:39:27;3.90;;;2.30;;
73337;SDS011;61575;49.908;35.556;2023-06-22T12:42:29;5.07;;;2.50;;
73337;SDS011;61575;49.908;35.556;2023-06-22T12:45:31;4.68;;;2.55;;
73337;SDS011;61575;49.908;35.556;2023-06-22T12:48:35;3.78;;;2.15;;
73337;SDS011;61575;49.908;35.556;2023-06-22T12:51:43;3.72;;;2.17;;
73337;SDS011;61575;49.908;35.556;2023-06-22T12:54:45;4.28;;;2.50;;
73337;SDS011;61575;49.908;35.556;2023-06-22T12:57:56;4.50;;;2.22;;
73337;SDS011;61575;49.908;35.556;2023-06-22T13:00:58;4.32;;;2.20;;
73337;SDS011;61575;49.908;35.556;2023-06-22T13:04:00;5.25;;;2.58;;
73337;SDS011;61575;49.908;35.556;2023-06-22T13:07:02;4.07;;;2.28;;
73337;SDS011;61575;49.908;35.556;2023-06-22T13:10:19;4.10;;;2.35;;
73337;SDS011;61575;49.908;35.556;2023-06-22T13:13:21;4.43;;;2.35;;
73337;SDS011;61575;49.908;35.556;2023-06-22T13:16:26;4.13;;;2.50;;
73337;SDS011;61575;49.908;35.556;2023-06-22T13:19:27;3.88;;;2.28;;
73337;SDS011;61575;49.908;35.556;2023-06-22T13:22:34;3.90;;;2.33;;
73337;SDS011;61575;49.908;35.556;2023-06-22T13:25:44;3.92;;;2.30;;
73337;SDS011;61575;49.908;35.556;2023-06-22T13:28:46;4.25;;;2.30;;
73337;SDS011;61575;49.908;35.556;2023-06-22T13:31:48;4.60;;;2.40;;
73337;SDS011;61575;49.908;35.556;2023-06-22T13:34:52;4.25;;;2.47;;
73337;SDS011;61575;49.908;35.556;2023-06-22T13:37:54;3.80;;;2.20;;
73337;SDS011;61575;49.908;35.556;2023-06-22T13:40:56;4.45;;;2.50;;
73337;SDS011;61575;49.908;35.556;2023-06-22T13:44:00;4.28;;;2.47;;
73337;SDS011;61575;49.908;35.556;2023-06-22T13:47:02;4.75;;;2.30;;
73337;SDS011;61575;49.908;35.556;2023-06-22T13:50:04;4.30;;;2.63;;
73337;SDS011;61575;49.908;35.556;2023-06-22T13:53:07;4.97;;;2.95;;
73337;SDS011;61575;49.908;35.556;2023-06-22T13:56:08;5.20;;;2.55;;
73337;SDS011;61575;49.908;35.556;2023-06-22T13:59:11;4.00;;;2.35;;
73337;SDS011;61575;49.908;35.556;2023-06-22T14:02:13;4.03;;;2.20;;
73337;SDS011;61575;49.908;35.556;2023-06-22T14:05:15;5.05;;;2.50;;
73337;SDS011;61575;49.908;35.556;2023-06-22T14:08:17;5.57;;;2.60;;
73337;SDS011;61575;49.908;35.556;2023-06-22T14:11:39;4.20;;;2.40;;
73337;SDS011;61575;49.908;35.556;2023-06-22T14:14:40;3.88;;;2.20;;
73337;SDS011;61575;49.908;35.556;2023-06-22T14:17:42;4.50;;;2.58;;
73337;SDS011;61575;49.908;35.556;2023-06-22T14:20:44;4.55;;;2.60;;
73337;SDS011;61575;49.908;35.556;2023-06-22T14:23:46;4.70;;;2.60;;
73337;SDS011;61575;49.908;35.556;2023-06-22T14:26:51;4.78;;;2.55;;
73337;SDS011;61575;49.908;35.556;2023-06-22T14:29:53;4.60;;;2.50;;
73337;SDS011;61575;49.908;35.556;2023-06-22T14:32:55;4.70;;;2.50;;
73337;SDS011;61575;49.908;35.556;2023-06-22T14:35:57;5.22;;;2.70;;
73337;SDS011;61575;49.908;35.556;2023-06-22T14:38:58;4.40;;;2.50;;
73337;SDS011;61575;49.908;35.556;2023-06-22T14:42:00;4.75;;;2.63;;
73337;SDS011;61575;49.908;35.556;2023-06-22T14:45:04;4.20;;;2.30;;
73337;SDS011;61575;49.908;35.556;2023-06-22T14:48:07;4.00;;;2.33;;
73337;SDS011;61575;49.908;35.556;2023-06-22T14:51:09;4.90;;;2.85;;
73337;SDS011;61575;49.908;35.556;2023-06-22T14:54:16;4.63;;;2.60;;
73337;SDS011;61575;49.908;35.556;2023-06-22T14:57:18;4.95;;;2.60;;
73337;SDS011;61575;49.908;35.556;2023-06-22T15:00:21;4.70;;;2.50;;
73337;SDS011;61575;49.908;35.556;2023-06-22T15:03:23;5.20;;;2.67;;
73337;SDS011;61575;49.908;35.556;2023-06-22T15:06:29;5.75;;;2.90;;
73337;SDS011;61575;49.908;35.556;2023-06-22T15:09:31;4.57;;;2.75;;
73337;SDS011;61575;49.908;35.556;2023-06-22T15:12:33;5.68;;;2.80;;
73337;SDS011;61575;49.908;35.556;2023-06-22T15:15:35;4.65;;;2.63;;
73337;SDS011;61575;49.908;35.556;2023-06-22T15:18:37;5.10;;;2.80;;
73337;SDS011;61575;49.908;35.556;2023-06-22T15:21:39;5.05;;;2.92;;
73337;SDS011;61575;49.908;35.556;2023-06-22T15:24:41;4.25;;;2.67;;
73337;SDS011;61575;49.908;35.556;2023-06-22T15:27:43;4.43;;;2.60;;
73337;SDS011;61575;49.908;35.556;2023-06-22T15:30:45;5.25;;;3.15;;
73337;SDS011;61575;49.908;35.556;2023-06-22T15:33:49;4.07;;;2.47;;
73337;SDS011;61575;49.908;35.556;2023-06-22T15:36:51;4.50;;;2.80;;
73337;SDS011;61575;49.908;35.556;2023-06-22T15:39:53;5.80;;;2.83;;
73337;SDS011;61575;49.908;35.556;2023-06-22T15:42:57;4.93;;;2.50;;
73337;SDS011;61575;49.908;35.556;2023-06-22T15:45:59;4.43;;;2.50;;
73337;SDS011;61575;49.908;35.556;2023-06-22T15:49:01;4.50;;;2.60;;
73337;SDS011;61575;49.908;35.556;2023-06-22T15:52:03;6.68;;;2.78;;
73337;SDS011;61575;49.908;35.556;2023-06-22T15:55:05;5.45;;;2.58;;
73337;SDS011;61575;49.908;35.556;2023-06-22T15:58:09;5.28;;;2.78;;
73337;SDS011;61575;49.908;35.556;2023-06-22T16:01:14;5.00;;;2.97;;
73337;SDS011;61575;49.908;35.556;2023-06-22T16:04:16;4.72;;;2.78;;
73337;SDS011;61575;49.908;35.556;2023-06-22T16:07:18;5.63;;;3.05;;
73337;SDS011;61575;49.908;35.556;2023-06-22T16:10:20;4.35;;;2.50;;
73337;SDS011;61575;49.908;35.556;2023-06-22T16:13:22;5.22;;;2.90;;
73337;SDS011;61575;49.908;35.556;2023-06-22T16:16:24;4.43;;;2.50;;
73337;SDS011;61575;49.908;35.556;2023-06-22T16:19:26;4.28;;;2.60;;
73337;SDS011;61575;49.908;35.556;2023-06-22T16:22:28;4.55;;;2.53;;
73337;SDS011;61575;49.908;35.556;2023-06-22T16:25:30;4.63;;;2.45;;
73337;SDS011;61575;49.908;35.556;2023-06-22T16:28:32;4.85;;;2.95;;
73337;SDS011;61575;49.908;35.556;2023-06-22T16:31:33;5.20;;;2.88;;
73337;SDS011;61575;49.908;35.556;2023-06-22T16:34:35;4.95;;;2.78;;
73337;SDS011;61575;49.908;35.556;2023-06-22T16:37:37;4.72;;;2.65;;
73337;SDS011;61575;49.908;35.556;2023-06-22T16:40:39;6.20;;;3.22;;
73337;SDS011;61575;49.908;35.556;2023-06-22T16:43:41;5.28;;;2.97;;
73337;SDS011;61575;49.908;35.556;2023-06-22T16:46:43;7.88;;;3.13;;
73337;SDS011;61575;49.908;35.556;2023-06-22T16:49:45;5.85;;;3.17;;
73337;SDS011;61575;49.908;35.556;2023-06-22T16:52:48;5.22;;;2.70;;
73337;SDS011;61575;49.908;35.556;2023-06-22T16:55:50;5.38;;;2.83;;
73337;SDS011;61575;49.908;35.556;2023-06-22T16:58:55;5.53;;;2.55;;
73337;SDS011;61575;49.908;35.556;2023-06-22T17:02:11;5.50;;;3.10;;
73337;SDS011;61575;49.908;35.556;2023-06-22T17:05:18;4.47;;;2.80;;
73337;SDS011;61575;49.908;35.556;2023-06-22T17:08:21;5.60;;;2.78;;
73337;SDS011;61575;49.908;35.556;2023-06-22T17:11:24;5.93;;;2.72;;
73337;SDS011;61575;49.908;35.556;2023-06-22T17:14:26;5.10;;;2.78;;
73337;SDS011;61575;49.908;35.556;2023-06-22T17:20:31;5.18;;;2.55;;
73337;SDS011;61575;49.908;35.556;2023-06-22T17:23:33;5.20;;;2.75;;
73337;SDS011;61575;49.908;35.556;2023-06-22T17:26:37;5.35;;;2.90;;
73337;SDS011;61575;49.908;35.556;2023-06-22T17:32:40;7.95;;;4.05;;
73337;SDS011;61575;49.908;35.556;2023-06-22T17:35:48;6.15;;;3.65;;
73337;SDS011;61575;49.908;35.556;2023-06-22T17:38:50;5.90;;;3.53;;
73337;SDS011;61575;49.908;35.556;2023-06-22T17:41:53;6.57;;;3.10;;
73337;SDS011;61575;49.908;35.556;2023-06-22T17:45:00;8.02;;;3.47;;
73337;SDS011;61575;49.908;35.556;2023-06-22T17:48:03;11.40;;;5.60;;
73337;SDS011;61575;49.908;35.556;2023-06-22T17:51:09;11.55;;;5.55;;
73337;SDS011;61575;49.908;35.556;2023-06-22T17:57:14;9.27;;;5.32;;
73337;SDS011;61575;49.908;35.556;2023-06-22T18:00:20;13.85;;;7.20;;
73337;SDS011;61575;49.908;35.556;2023-06-22T18:03:26;11.73;;;6.15;;
73337;SDS011;61575;49.908;35.556;2023-06-22T18:06:29;11.20;;;6.00;;
73337;SDS011;61575;49.908;35.556;2023-06-22T18:09:34;9.75;;;5.03;;
73337;SDS011;61575;49.908;35.556;2023-06-22T18:12:37;8.23;;;4.72;;
73337;SDS011;61575;49.908;35.556;2023-06-22T18:15:42;7.32;;;4.10;;
73337;SDS011;61575;49.908;35.556;2023-06-22T18:21:48;6.57;;;3.75;;
73337;SDS011;61575;49.908;35.556;2023-06-22T18:24:50;7.90;;;3.78;;
73337;SDS011;61575;49.908;35.556;2023-06-22T18:27:55;6.68;;;3.60;;
73337;SDS011;61575;49.908;35.556;2023-06-22T18:30:57;7.22;;;4.05;;
73337;SDS011;61575;49.908;35.556;2023-06-22T18:33:59;6.30;;;3.55;;
73337;SDS011;61575;49.908;35.556;2023-06-22T18:37:06;6.38;;;3.38;;
73337;SDS011;61575;49.908;35.556;2023-06-22T18:40:13;6.22;;;3.22;;
73337;SDS011;61575;49.908;35.556;2023-06-22T18:43:22;6.03;;;3.38;;
73337;SDS011;61575;49.908;35.556;2023-06-22T18:46:30;5.95;;;3.33;;
73337;SDS011;61575;49.908;35.556;2023-06-22T18:52:40;6.50;;;3.25;;
73337;SDS011;61575;49.908;35.556;2023-06-22T18:55:43;6.90;;;3.67;;
73337;SDS011;61575;49.908;35.556;2023-06-22T18:58:55;6.90;;;3.40;;
73337;SDS011;61575;49.908;35.556;2023-06-22T19:02:01;6.70;;;3.47;;
73337;SDS011;61575;49.908;35.556;2023-06-22T19:08:14;7.78;;;3.40;;
73337;SDS011;61575;49.908;35.556;2023-06-22T19:11:16;5.20;;;2.80;;